createdAt,value
2017-05-01T00:02:13.638Z,80.60
2017-05-01T00:04:41.935Z,82.30
2017-05-01T00:07:10.231Z,83.10
2017-05-01T00:09:38.558Z,84.30
2017-05-01T00:12:06.852Z,84.80
2017-05-01T00:14:35.143Z,85.30
2017-05-01T00:17:03.464Z,85.30
2017-05-01T00:19:31.762Z,85.80
2017-05-01T00:22:00.050Z,86.00
2017-05-01T00:24:29.114Z,86.10
2017-05-01T00:26:57.407Z,86.10
2017-05-01T00:29:25.699Z,86.30
2017-05-01T00:31:54.774Z,86.10
2017-05-01T00:34:23.072Z,87.00
2017-05-01T00:36:52.108Z,87.10
2017-05-01T00:39:20.434Z,87.10
2017-05-01T00:41:48.727Z,86.80
2017-05-01T00:44:17.030Z,88.00
2017-05-01T00:46:45.351Z,88.50
2017-05-01T00:49:13.641Z,88.60
2017-05-01T00:51:41.931Z,89.10
2017-05-01T00:54:10.250Z,89.50
2017-05-01T00:56:38.543Z,89.40
2017-05-01T00:59:06.834Z,90.00
2017-05-01T01:01:35.154Z,90.10
2017-05-01T01:04:03.447Z,89.70
2017-05-01T01:06:31.738Z,90.20
2017-05-01T01:09:05.707Z,91.30
2017-05-01T01:11:33.995Z,91.90
2017-05-01T01:14:02.279Z,90.70
2017-05-01T01:16:30.601Z,90.90
2017-05-01T01:18:58.892Z,91.70
2017-05-01T01:21:27.931Z,91.90
2017-05-01T01:23:56.257Z,91.70
2017-05-01T01:26:25.295Z,91.20
2017-05-01T01:28:53.589Z,91.40
2017-05-01T01:31:21.907Z,91.70
2017-05-01T01:33:50.203Z,91.70
2017-05-01T01:36:19.244Z,91.60
2017-05-01T01:38:47.585Z,91.50
2017-05-01T01:41:15.881Z,91.50
2017-05-01T01:43:44.173Z,91.60
2017-05-01T01:46:13.226Z,91.50
2017-05-01T01:48:41.525Z,91.40
2017-05-01T01:51:09.823Z,91.30
2017-05-01T01:53:38.893Z,91.10
2017-05-01T01:56:07.184Z,91.30
2017-05-01T01:58:36.212Z,91.50
2017-05-01T02:01:04.538Z,91.90
2017-05-01T02:03:32.836Z,91.90
2017-05-01T02:06:01.870Z,91.70
2017-05-01T02:08:30.188Z,91.50
2017-05-01T02:10:58.480Z,92.40
2017-05-01T02:13:27.521Z,92.40
2017-05-01T02:15:55.847Z,92.50
2017-05-01T02:18:24.153Z,92.70
2017-05-01T02:20:52.446Z,93.20
2017-05-01T02:23:20.766Z,92.60
2017-05-01T02:25:49.055Z,93.20
2017-05-01T02:28:17.357Z,93.60
2017-05-01T02:30:46.414Z,93.70
2017-05-01T02:33:14.715Z,93.40
2017-05-01T02:35:43.746Z,93.20
2017-05-01T02:38:12.070Z,93.40
2017-05-01T02:40:40.364Z,93.20
2017-05-01T02:43:08.654Z,92.90
2017-05-01T02:45:36.962Z,92.90
2017-05-01T02:48:05.253Z,93.20
2017-05-01T02:50:33.557Z,93.30
2017-05-01T02:53:02.625Z,92.90
2017-05-01T02:55:30.919Z,93.30
2017-05-01T02:57:59.205Z,93.30
2017-05-01T03:00:28.259Z,93.10
2017-05-01T03:02:56.551Z,92.90
2017-05-01T03:05:24.834Z,93.00
2017-05-01T03:07:53.152Z,92.90
2017-05-01T03:10:21.444Z,92.70
2017-05-01T03:12:49.731Z,91.90
2017-05-01T03:15:18.045Z,92.30
2017-05-01T03:17:46.331Z,92.80
2017-05-01T03:20:14.620Z,92.80
2017-05-01T03:22:43.683Z,92.80
2017-05-01T03:25:11.978Z,92.60
2017-05-01T03:27:40.270Z,92.30
2017-05-01T03:30:09.334Z,91.80
2017-05-01T03:32:37.619Z,91.60
2017-05-01T03:35:05.903Z,91.60
2017-05-01T03:37:34.230Z,91.90
2017-05-01T03:40:03.265Z,92.30
2017-05-01T03:42:31.558Z,92.60
2017-05-01T03:44:59.874Z,92.70
2017-05-01T03:47:28.168Z,93.20
2017-05-01T03:49:57.209Z,93.70
2017-05-01T03:52:25.538Z,93.80
2017-05-01T03:54:54.571Z,93.80
2017-05-01T03:57:22.865Z,93.50
2017-05-01T03:59:51.199Z,93.00
2017-05-01T04:02:19.490Z,92.50
2017-05-01T04:04:47.793Z,92.60
2017-05-01T04:07:16.110Z,92.90
2017-05-01T04:09:45.136Z,93.10
2017-05-01T04:12:13.425Z,92.80
2017-05-01T04:14:41.759Z,92.40
2017-05-01T04:17:10.062Z,92.00
2017-05-01T04:19:38.351Z,91.70
2017-05-01T04:22:06.678Z,91.40
2017-05-01T04:24:34.965Z,91.20
2017-05-01T04:27:03.261Z,90.90
2017-05-01T04:29:31.591Z,90.50
2017-05-01T04:31:59.879Z,90.20
2017-05-01T04:34:28.179Z,89.40
2017-05-01T04:36:56.499Z,88.50
2017-05-01T04:39:24.790Z,87.70
2017-05-01T04:41:53.087Z,89.30
2017-05-01T04:44:21.418Z,88.40
2017-05-01T04:46:50.464Z,86.90
2017-05-01T04:49:18.775Z,86.90
2017-05-01T04:51:47.115Z,86.30
2017-05-01T04:54:15.418Z,84.60
2017-05-01T04:56:44.460Z,83.50
2017-05-01T04:59:12.795Z,83.40
2017-05-01T05:01:41.856Z,85.50
2017-05-01T05:04:10.164Z,87.20
2017-05-01T05:06:38.490Z,85.50
2017-05-01T05:09:06.783Z,84.30
2017-05-01T05:11:35.071Z,84.00
2017-05-01T05:14:03.409Z,84.20
2017-05-01T05:16:31.712Z,85.60
2017-05-01T05:19:00.010Z,86.50
2017-05-01T05:21:28.346Z,87.70
2017-05-01T05:23:56.651Z,89.00
2017-05-01T05:26:24.943Z,89.10
2017-05-01T05:28:53.282Z,89.30
2017-05-01T05:31:21.588Z,88.20
2017-05-01T05:33:49.894Z,89.00
2017-05-01T05:36:18.215Z,88.50
2017-05-01T05:38:46.533Z,86.70
2017-05-01T05:41:15.582Z,87.50
2017-05-01T05:43:43.931Z,87.70
2017-05-01T05:46:12.227Z,87.20
2017-05-01T05:48:40.529Z,86.30
2017-05-01T05:51:08.863Z,86.80
2017-05-01T05:53:37.166Z,86.20
2017-05-01T05:56:05.462Z,86.70
2017-05-01T05:58:33.783Z,84.20
2017-05-01T06:01:02.074Z,84.00
2017-05-01T06:03:30.371Z,83.50
2017-05-01T06:05:59.442Z,79.60
2017-05-01T06:08:27.749Z,79.90
2017-05-01T06:10:56.043Z,79.00
2017-05-01T06:13:24.372Z,78.60
2017-05-01T06:15:52.680Z,75.60
2017-05-01T06:18:20.977Z,79.00
2017-05-01T06:20:49.310Z,77.60
2017-05-01T06:23:17.612Z,75.40
2017-05-01T06:25:45.925Z,74.50
2017-05-01T06:30:43.148Z,69.10
2017-05-01T06:33:11.450Z,67.30
2017-05-01T06:35:39.779Z,65.00
2017-05-01T06:38:08.079Z,66.00
2017-05-01T06:40:36.380Z,59.40
2017-05-01T06:43:04.712Z,58.80
2017-05-01T06:45:33.755Z,52.90
2017-05-01T06:48:02.052Z,49.60
2017-05-01T06:50:30.379Z,50.20
2017-05-01T06:52:59.419Z,49.00
2017-05-01T06:55:27.715Z,46.40
2017-05-01T06:57:56.050Z,46.80
2017-05-01T07:00:24.349Z,48.10
2017-05-01T07:02:51.889Z,48.00
2017-05-01T07:05:20.963Z,51.10
2017-05-01T07:07:49.264Z,50.00
2017-05-01T07:10:18.312Z,47.00
2017-05-01T07:12:46.644Z,47.70
2017-05-01T07:15:15.685Z,47.50
2017-05-01T07:17:43.982Z,46.50
2017-05-01T07:20:12.311Z,46.60
2017-05-01T07:22:40.618Z,47.20
2017-05-01T07:25:09.655Z,47.40
2017-05-01T07:27:37.975Z,45.70
2017-05-01T07:30:07.011Z,51.40
2017-05-01T07:32:35.308Z,51.90
2017-05-01T07:35:03.621Z,52.50
2017-05-01T07:37:31.915Z,52.30
2017-05-01T07:40:00.978Z,56.30
2017-05-01T07:42:29.275Z,55.20
2017-05-01T07:44:57.572Z,57.40
2017-05-01T07:47:25.907Z,55.30
2017-05-01T07:49:54.202Z,52.70
2017-05-01T07:52:22.502Z,55.80
2017-05-01T07:54:50.843Z,57.50
2017-05-01T07:57:19.142Z,56.50
2017-05-01T07:59:47.442Z,54.90
2017-05-01T08:02:15.777Z,54.20
2017-05-01T08:04:44.079Z,55.50
2017-05-01T08:07:12.374Z,52.70
2017-05-01T08:09:40.698Z,52.10
2017-05-01T08:12:09.739Z,52.80
2017-05-01T08:14:38.041Z,53.60
2017-05-01T08:17:06.363Z,50.60
2017-05-01T08:19:34.659Z,50.80
2017-05-01T08:22:02.987Z,49.80
2017-05-01T08:24:31.291Z,50.40
2017-05-01T08:26:59.589Z,50.10
2017-05-01T08:29:27.903Z,49.80
2017-05-01T08:31:56.200Z,48.70
2017-05-01T08:34:25.276Z,50.20
2017-05-01T08:36:53.572Z,49.10
2017-05-01T08:39:21.868Z,50.10
2017-05-01T08:41:50.927Z,50.20
2017-05-01T08:44:19.223Z,52.80
2017-05-01T08:46:48.286Z,51.40
2017-05-01T08:49:16.578Z,51.40
2017-05-01T08:51:44.866Z,50.90
2017-05-01T08:54:13.185Z,53.30
2017-05-01T08:56:41.496Z,54.10
2017-05-01T08:59:10.560Z,50.80
2017-05-01T09:01:38.855Z,50.50
2017-05-01T09:04:07.152Z,51.40
2017-05-01T09:06:36.210Z,51.60
2017-05-01T09:09:04.503Z,52.20
2017-05-01T09:11:32.823Z,50.50
2017-05-01T09:14:01.123Z,53.20
2017-05-01T09:16:29.423Z,51.30
2017-05-01T09:18:57.749Z,51.80
2017-05-01T09:21:26.052Z,50.90
2017-05-01T09:23:54.383Z,51.30
2017-05-01T09:26:23.417Z,54.00
2017-05-01T09:28:51.707Z,50.70
2017-05-01T09:31:20.026Z,49.70
2017-05-01T09:33:48.360Z,51.20
2017-05-01T09:36:16.667Z,50.60
2017-05-01T09:38:44.963Z,48.90
2017-05-01T09:41:13.712Z,48.50
2017-05-01T09:43:42.031Z,49.60
2017-05-01T09:46:10.327Z,48.30
2017-05-01T09:48:38.659Z,49.40
2017-05-01T09:51:06.959Z,49.30
2017-05-01T09:53:35.999Z,49.40
2017-05-01T09:56:04.326Z,50.60
2017-05-01T09:58:32.630Z,47.40
2017-05-01T10:01:00.924Z,46.40
2017-05-01T10:03:29.238Z,45.00
2017-05-01T10:05:57.534Z,44.90
2017-05-01T10:08:26.572Z,44.10
2017-05-01T10:10:54.903Z,44.70
2017-05-01T10:13:23.199Z,42.40
2017-05-01T10:15:51.501Z,41.30
2017-05-01T10:18:19.825Z,39.40
2017-05-01T10:20:48.868Z,40.50
2017-05-01T10:23:17.164Z,39.60
2017-05-01T10:25:45.484Z,40.30
2017-05-01T10:28:13.783Z,38.50
2017-05-01T10:30:42.079Z,39.50
2017-05-01T10:33:10.413Z,37.70
2017-05-01T10:35:38.701Z,39.40
2017-05-01T10:38:06.995Z,39.50
2017-05-01T10:40:35.323Z,39.00
2017-05-01T10:43:03.619Z,39.40
2017-05-01T10:45:31.912Z,39.10
2017-05-01T10:48:00.239Z,38.80
2017-05-01T10:50:29.278Z,38.80
2017-05-01T10:52:57.576Z,38.80
2017-05-01T10:55:25.909Z,38.50
2017-05-01T10:57:54.208Z,39.00
2017-05-01T11:00:22.502Z,37.90
2017-05-01T11:02:50.834Z,39.30
2017-05-01T11:05:19.125Z,39.10
2017-05-01T11:07:47.419Z,40.60
2017-05-01T11:10:15.747Z,41.00
2017-05-01T11:12:44.040Z,40.70
2017-05-01T11:15:12.337Z,40.50
2017-05-01T11:17:40.655Z,38.00
2017-05-01T11:20:09.687Z,37.30
2017-05-01T11:22:37.983Z,37.50
2017-05-01T11:25:06.313Z,37.40
2017-05-01T11:27:34.610Z,38.60
2017-05-01T11:30:02.910Z,39.50
2017-05-01T11:32:31.240Z,40.70
2017-05-01T11:34:59.534Z,40.20
2017-05-01T11:37:27.827Z,41.40
2017-05-01T11:39:56.145Z,44.60
2017-05-01T11:42:25.182Z,47.10
2017-05-01T11:44:53.481Z,49.60
2017-05-01T11:47:21.809Z,50.00
2017-05-01T11:49:50.099Z,51.60
2017-05-01T11:52:18.395Z,50.20
2017-05-01T11:54:46.723Z,51.50
2017-05-01T11:57:15.746Z,52.70
2017-05-01T11:59:44.930Z,55.70
2017-05-01T12:02:13.990Z,56.30
2017-05-01T12:04:42.286Z,56.60
2017-05-01T12:07:11.320Z,58.00
2017-05-01T12:09:39.643Z,58.80
2017-05-01T12:12:08.676Z,63.30
2017-05-01T12:14:36.971Z,63.00
2017-05-01T12:17:05.292Z,61.20
2017-05-01T12:19:33.587Z,62.10
2017-05-01T12:22:01.874Z,60.80
2017-05-01T12:24:30.205Z,63.30
2017-05-01T12:26:58.495Z,63.10
2017-05-01T12:29:27.531Z,64.20
2017-05-01T12:31:55.855Z,63.80
2017-05-01T12:34:24.144Z,62.70
2017-05-01T12:36:52.436Z,60.40
2017-05-01T12:39:20.763Z,60.00
2017-05-01T12:41:49.799Z,60.50
2017-05-01T12:44:18.092Z,58.80
2017-05-01T12:46:46.406Z,59.00
2017-05-01T12:49:15.435Z,59.00
2017-05-01T12:51:43.722Z,61.10
2017-05-01T12:54:12.050Z,59.80
2017-05-01T12:56:40.343Z,59.10
2017-05-01T12:59:09.380Z,61.40
2017-05-01T13:01:37.694Z,62.40
2017-05-01T13:04:05.995Z,62.00
2017-05-01T13:06:34.281Z,63.10
2017-05-01T13:09:02.598Z,65.00
2017-05-01T13:11:30.888Z,64.80
2017-05-01T13:13:59.179Z,66.30
2017-05-01T13:16:28.236Z,66.60
2017-05-01T13:18:56.529Z,69.00
2017-05-01T13:21:24.861Z,69.70
2017-05-01T13:23:53.547Z,70.40
2017-05-01T13:26:21.851Z,72.40
2017-05-01T13:28:50.168Z,72.70
2017-05-01T13:31:19.207Z,73.80
2017-05-01T13:33:47.502Z,74.40
2017-05-01T13:36:16.559Z,76.40
2017-05-01T13:38:44.854Z,75.00
2017-05-01T13:41:13.142Z,75.00
2017-05-01T13:43:42.199Z,75.60
2017-05-01T13:46:10.488Z,77.10
2017-05-01T13:48:38.782Z,76.20
2017-05-01T13:51:07.099Z,74.40
2017-05-01T13:53:35.392Z,74.90
2017-05-01T13:56:03.679Z,74.50
2017-05-01T13:58:32.012Z,72.90
2017-05-01T14:01:01.047Z,73.40
2017-05-01T14:03:29.340Z,72.40
2017-05-01T14:05:57.693Z,72.50
2017-05-01T14:08:25.989Z,72.90
2017-05-01T14:10:54.282Z,75.10
2017-05-01T14:13:22.611Z,76.10
2017-05-01T14:15:50.903Z,77.10
2017-05-01T14:18:19.202Z,77.50
2017-05-01T14:20:47.523Z,78.60
2017-05-01T14:23:15.818Z,77.80
2017-05-01T14:25:44.111Z,78.10
2017-05-01T14:28:12.445Z,78.20
2017-05-01T14:30:41.478Z,79.30
2017-05-01T14:33:09.775Z,79.80
2017-05-01T14:35:38.111Z,80.50
2017-05-01T14:38:06.398Z,81.60
2017-05-01T14:40:34.690Z,81.90
2017-05-01T14:43:03.016Z,82.50
2017-05-01T14:45:32.046Z,83.00
2017-05-01T14:48:00.334Z,83.50
2017-05-01T14:50:29.391Z,83.40
2017-05-01T14:52:57.687Z,83.30
2017-05-01T14:55:26.056Z,83.50
2017-05-01T14:57:54.491Z,84.30
2017-05-01T15:00:23.694Z,84.60
2017-05-01T15:02:51.999Z,84.40
2017-05-01T15:05:20.323Z,85.20
2017-05-01T15:07:48.623Z,85.50
2017-05-01T15:10:17.659Z,85.70
2017-05-01T15:12:45.991Z,86.40
2017-05-01T15:15:15.029Z,86.60
2017-05-01T15:17:43.323Z,86.80
2017-05-01T15:20:11.651Z,87.30
2017-05-01T15:22:39.951Z,88.00
2017-05-01T15:25:08.248Z,87.80
2017-05-01T15:27:36.555Z,88.30
2017-05-01T15:30:04.850Z,89.50
2017-05-01T15:32:33.141Z,89.80
2017-05-01T15:35:01.462Z,90.30
2017-05-01T15:37:29.750Z,90.30
2017-05-01T15:39:58.038Z,91.40
2017-05-01T15:42:26.355Z,91.40
2017-05-01T15:44:54.655Z,91.90
2017-05-01T15:47:23.687Z,92.00
2017-05-01T15:49:52.012Z,92.10
2017-05-01T15:52:20.306Z,92.60
2017-05-01T15:54:48.609Z,92.30
2017-05-01T15:57:16.940Z,93.20
2017-05-01T15:59:45.235Z,93.10
2017-05-01T16:02:13.532Z,92.10
2017-05-01T16:04:41.859Z,91.80
2017-05-01T16:07:10.161Z,92.50
2017-05-01T16:09:39.202Z,93.20
2017-05-01T16:12:07.526Z,92.90
2017-05-01T16:14:35.816Z,92.60
2017-05-01T16:17:04.879Z,93.80
2017-05-01T16:19:33.195Z,93.80
2017-05-01T16:22:02.227Z,94.70
2017-05-01T16:24:30.520Z,95.00
2017-05-01T16:26:58.854Z,95.50
2017-05-01T16:29:27.140Z,94.90
2017-05-01T16:31:55.432Z,95.10
2017-05-01T16:34:23.759Z,95.20
2017-05-01T16:36:52.054Z,94.90
2017-05-01T16:39:21.112Z,95.40
2017-05-01T16:41:49.398Z,95.40
2017-05-01T16:44:17.684Z,95.90
2017-05-01T16:46:46.008Z,96.40
2017-05-01T16:49:14.300Z,96.10
2017-05-01T16:51:42.599Z,96.10
2017-05-01T16:54:10.922Z,96.40
2017-05-01T16:56:39.963Z,96.80
2017-05-01T16:59:08.250Z,96.90
2017-05-01T17:01:36.574Z,96.80
2017-05-01T17:04:04.863Z,96.30
2017-05-01T17:06:33.159Z,96.90
2017-05-01T17:09:02.220Z,96.40
2017-05-01T17:11:30.507Z,95.80
2017-05-01T17:13:58.798Z,96.10
2017-05-01T17:16:27.867Z,96.60
2017-05-01T17:18:56.167Z,95.80
2017-05-01T17:21:25.199Z,95.90
2017-05-01T17:23:53.515Z,96.50
2017-05-01T17:26:21.802Z,96.10
2017-05-01T17:28:50.087Z,96.40
2017-05-01T17:31:18.408Z,96.90
2017-05-01T17:33:46.696Z,96.80
2017-05-01T17:36:14.986Z,96.50
2017-05-01T17:38:43.299Z,96.80
2017-05-01T17:41:11.583Z,96.70
2017-05-01T17:43:39.899Z,96.90
2017-05-01T17:46:08.194Z,96.90
2017-05-01T17:48:36.482Z,96.40
2017-05-01T17:51:04.787Z,96.20
2017-05-01T17:53:33.081Z,95.90
2017-05-01T17:56:01.372Z,96.10
2017-05-01T17:58:29.690Z,95.90
2017-05-01T18:00:57.979Z,96.00
2017-05-01T18:03:27.413Z,96.30
2017-05-01T18:05:56.747Z,96.70
2017-05-01T18:08:25.706Z,96.20
2017-05-01T18:10:54.038Z,96.40
2017-05-01T18:13:22.329Z,96.80
2017-05-01T18:15:50.626Z,96.90
2017-05-01T18:18:18.924Z,96.50
2017-05-01T18:20:47.963Z,96.50
2017-05-01T18:23:16.246Z,97.00
2017-05-01T18:25:44.534Z,96.70
2017-05-01T18:28:12.821Z,97.20
2017-05-01T18:30:41.108Z,96.90
2017-05-01T18:33:09.400Z,97.40
2017-05-01T18:35:38.462Z,97.00
2017-05-01T18:38:06.756Z,96.90
2017-05-01T18:40:35.046Z,97.00
2017-05-01T18:43:04.111Z,97.30
2017-05-01T18:45:32.400Z,97.30
2017-05-01T18:48:01.430Z,96.90
2017-05-01T18:50:29.721Z,97.20
2017-05-01T18:52:58.009Z,96.80
2017-05-01T18:55:26.304Z,97.80
2017-05-01T18:57:54.599Z,97.90
2017-05-01T19:00:22.895Z,98.20
2017-05-01T19:02:51.923Z,98.00
2017-05-01T19:05:20.220Z,97.80
2017-05-01T19:07:48.554Z,97.80
2017-05-01T19:10:16.842Z,97.90
2017-05-01T19:12:45.126Z,98.40
2017-05-01T19:15:13.435Z,98.50
2017-05-01T19:17:41.724Z,98.90
2017-05-01T19:20:10.016Z,98.30
2017-05-01T19:22:38.339Z,98.70
2017-05-01T19:25:06.628Z,98.60
2017-05-01T19:27:34.923Z,98.60
2017-05-01T19:30:03.240Z,98.40
2017-05-01T19:32:32.276Z,98.70
2017-05-01T19:35:00.571Z,98.90
2017-05-01T19:37:28.878Z,98.70
2017-05-01T19:39:57.910Z,98.70
2017-05-01T19:42:26.231Z,98.90
2017-05-01T19:44:54.523Z,99.10
2017-05-01T19:47:23.560Z,98.60
2017-05-01T19:49:51.874Z,99.20
2017-05-01T19:52:20.166Z,99.30
2017-05-01T19:54:48.458Z,99.40
2017-05-01T19:57:17.506Z,99.70
2017-05-01T19:59:45.799Z,99.70
2017-05-01T20:02:14.128Z,99.90
2017-05-01T20:04:42.420Z,99.90
2017-05-01T20:07:10.713Z,99.90
2017-05-01T20:09:39.022Z,99.90
2017-05-01T20:12:07.307Z,99.90
2017-05-01T20:14:35.615Z,99.90
2017-05-01T20:17:03.908Z,99.90
2017-05-01T20:19:32.196Z,99.70
2017-05-01T20:22:00.562Z,99.50
2017-05-01T20:24:28.851Z,99.90
2017-05-01T20:26:57.179Z,99.70
2017-05-01T20:29:25.474Z,99.30
2017-05-01T20:31:53.768Z,99.30
2017-05-01T20:34:22.081Z,99.60
2017-05-01T20:36:50.375Z,99.30
2017-05-01T20:39:18.696Z,99.40
2017-05-01T20:41:46.990Z,99.60
2017-05-01T20:44:15.282Z,99.30
2017-05-01T20:46:43.594Z,99.00
2017-05-01T20:49:11.894Z,99.10
2017-05-01T20:51:40.206Z,98.90
2017-05-01T20:54:08.495Z,98.80
2017-05-01T20:56:36.788Z,98.80
2017-05-01T20:59:05.101Z,98.80
2017-05-01T21:01:34.135Z,98.40
2017-05-01T21:04:02.451Z,98.60
2017-05-01T21:06:30.743Z,98.80
2017-05-01T21:08:59.779Z,98.80
2017-05-01T21:11:28.084Z,98.70
2017-05-01T21:13:56.375Z,98.80
2017-05-01T21:16:24.699Z,99.20
2017-05-01T21:18:52.998Z,99.10
2017-05-01T21:21:21.293Z,98.60
2017-05-01T21:23:49.604Z,98.80
2017-05-01T21:26:18.640Z,99.10
2017-05-01T21:28:46.968Z,99.00
2017-05-01T21:31:15.265Z,98.50
2017-05-01T21:33:44.300Z,98.80
2017-05-01T21:36:12.607Z,98.70
2017-05-01T21:38:41.635Z,99.10
2017-05-01T21:41:09.953Z,98.80
2017-05-01T21:43:38.244Z,98.60
2017-05-01T21:46:06.531Z,98.40
2017-05-01T21:48:34.846Z,98.40
2017-05-01T21:51:03.134Z,98.50
2017-05-01T21:53:31.445Z,98.90
2017-05-01T21:56:00.483Z,98.70
2017-05-01T21:58:28.766Z,98.70
2017-05-01T22:00:57.082Z,99.00
2017-05-01T22:03:26.116Z,99.50
2017-05-01T22:05:54.439Z,99.90
2017-05-01T22:08:22.727Z,99.90
2017-05-01T22:10:51.014Z,99.80
2017-05-01T22:13:20.068Z,99.90
2017-05-01T22:15:48.356Z,99.90
2017-05-01T22:18:16.679Z,99.90
2017-05-01T22:20:45.711Z,99.90
2017-05-01T22:23:14.006Z,99.90
2017-05-01T22:25:42.318Z,99.90
2017-05-01T22:28:11.748Z,99.90
2017-05-01T22:30:40.070Z,99.90
2017-05-01T22:33:08.361Z,99.90
2017-05-01T22:35:36.650Z,99.90
2017-05-01T22:38:05.708Z,99.90
2017-05-01T22:40:33.999Z,99.90
2017-05-01T22:43:02.311Z,99.90
2017-05-01T22:45:31.346Z,99.90
2017-05-01T22:47:59.639Z,99.90
2017-05-01T22:50:27.952Z,99.90
2017-05-01T22:52:56.984Z,99.90
2017-05-01T22:55:25.303Z,99.90
2017-05-01T22:57:53.595Z,99.90
2017-05-01T23:00:22.628Z,99.90
2017-05-01T23:02:50.941Z,99.90
2017-05-01T23:05:19.232Z,99.90
2017-05-01T23:07:47.559Z,99.90
2017-05-01T23:10:15.848Z,99.90
2017-05-01T23:12:44.141Z,99.90
2017-05-01T23:15:12.458Z,99.90
2017-05-01T23:17:41.491Z,99.90
2017-05-01T23:20:09.801Z,99.90
2017-05-01T23:22:38.382Z,99.90
2017-05-01T23:25:06.671Z,99.90
2017-05-01T23:27:34.984Z,99.90
2017-05-01T23:30:03.275Z,99.90
2017-05-01T23:32:31.594Z,99.90
2017-05-01T23:34:59.879Z,99.90
2017-05-01T23:37:28.171Z,99.90
2017-05-01T23:39:56.490Z,99.90
2017-05-01T23:42:24.783Z,99.90
2017-05-01T23:44:53.111Z,99.90
2017-05-01T23:47:21.400Z,99.90
2017-05-01T23:49:50.433Z,99.90
2017-05-01T23:52:19.872Z,99.90
2017-05-01T23:54:48.255Z,99.90
2017-05-01T23:57:16.591Z,99.90
2017-05-01T23:59:44.880Z,99.90
